createdAt,value
2023-01-21T00:01:09.291Z,6.61
2023-01-21T00:03:36.306Z,6.71
2023-01-21T00:06:05.225Z,6.62
2023-01-21T00:08:32.557Z,6.57
2023-01-21T00:11:11.493Z,6.60
2023-01-21T00:13:38.521Z,6.56
2023-01-21T00:16:06.138Z,6.76
2023-01-21T00:18:34.191Z,6.96
2023-01-21T00:21:01.805Z,7.13
2023-01-21T00:23:28.741Z,7.13
2023-01-21T00:26:03.245Z,7.19
2023-01-21T00:28:31.875Z,7.15
2023-01-21T00:31:00.314Z,6.88
2023-01-21T00:33:28.303Z,6.64
2023-01-21T00:36:12.478Z,6.84
2023-01-21T00:38:40.249Z,6.71
2023-01-21T00:41:12.796Z,6.60
2023-01-21T00:43:42.765Z,6.73
2023-01-21T00:46:10.961Z,6.72
2023-01-21T00:48:38.391Z,6.65
2023-01-21T00:51:05.528Z,6.82
2023-01-21T00:53:35.272Z,6.63
2023-01-21T00:56:04.410Z,6.73
2023-01-21T00:58:31.863Z,6.84
2023-01-21T01:01:05.401Z,6.73
2023-01-21T01:03:32.889Z,6.70
2023-01-21T01:06:05.831Z,6.69
2023-01-21T01:08:33.239Z,6.69
2023-01-21T01:11:00.646Z,6.71
2023-01-21T01:13:27.953Z,6.54
2023-01-21T01:15:57.565Z,6.34
2023-01-21T01:18:25.913Z,6.26
2023-01-21T01:20:52.941Z,6.35
2023-01-21T01:23:19.802Z,6.22
2023-01-21T01:26:08.067Z,6.21
2023-01-21T01:28:35.444Z,6.06
2023-01-21T01:31:08.838Z,6.06
2023-01-21T01:33:35.840Z,6.00
2023-01-21T01:36:08.887Z,5.88
2023-01-21T01:38:35.839Z,5.84
2023-01-21T01:41:03.470Z,5.78
2023-01-21T01:43:59.863Z,5.99
2023-01-21T01:46:32.618Z,6.07
2023-01-21T01:49:02.240Z,6.05
2023-01-21T01:51:57.595Z,5.93
2023-01-21T01:54:29.861Z,5.36
2023-01-21T01:56:59.412Z,4.97
2023-01-21T01:59:27.917Z,5.19
2023-01-21T02:01:57.343Z,5.50
2023-01-21T02:04:29.874Z,5.68
2023-01-21T02:06:57.891Z,5.62
2023-01-21T02:09:29.864Z,5.43
2023-01-21T02:12:02.768Z,5.48
2023-01-21T02:14:31.945Z,5.66
2023-01-21T02:17:04.515Z,5.74
2023-01-21T02:20:08.625Z,5.72
2023-01-21T02:23:04.763Z,5.48
2023-01-21T02:25:34.627Z,5.03
2023-01-21T02:28:21.420Z,4.99
2023-01-21T02:31:03.289Z,5.09
2023-01-21T02:34:01.318Z,5.21
2023-01-21T02:36:57.664Z,5.34
2023-01-21T02:39:24.366Z,5.31
2023-01-21T02:41:56.896Z,5.30
2023-01-21T02:44:32.611Z,5.34
2023-01-21T02:47:19.779Z,5.44
2023-01-21T02:49:52.765Z,5.45
2023-01-21T02:52:23.101Z,5.25
2023-01-21T02:54:53.062Z,5.39
2023-01-21T02:57:36.779Z,5.61
2023-01-21T03:00:10.013Z,5.52
2023-01-21T03:03:03.666Z,5.52
2023-01-21T03:05:48.830Z,5.33
2023-01-21T03:08:27.389Z,4.90
2023-01-21T03:11:04.058Z,4.97
2023-01-21T03:13:59.567Z,5.08
2023-01-21T03:16:52.107Z,4.45
2023-01-21T03:19:20.990Z,4.84
2023-01-21T03:21:49.296Z,5.22
2023-01-21T03:24:16.587Z,5.60
2023-01-21T03:26:48.553Z,5.68
2023-01-21T03:29:21.347Z,5.25
2023-01-21T03:31:53.939Z,5.12
2023-01-21T03:34:24.413Z,5.41
2023-01-21T03:36:57.746Z,5.58
2023-01-21T03:39:51.999Z,5.59
2023-01-21T03:42:19.364Z,5.52
2023-01-21T03:44:46.805Z,4.38
2023-01-21T03:47:23.531Z,4.11
2023-01-21T03:49:59.748Z,4.14
2023-01-21T03:52:27.916Z,4.35
2023-01-21T03:54:55.225Z,4.61
2023-01-21T03:57:22.385Z,4.75
2023-01-21T03:59:49.307Z,4.86
2023-01-21T04:02:20.539Z,5.11
2023-01-21T04:04:48.340Z,5.09
2023-01-21T04:07:16.387Z,5.15
2023-01-21T04:09:43.843Z,5.12
2023-01-21T04:12:11.034Z,5.15
2023-01-21T04:14:38.582Z,5.09
2023-01-21T04:17:05.656Z,5.01
2023-01-21T04:19:32.619Z,4.63
2023-01-21T04:21:59.846Z,4.62
2023-01-21T04:24:27.132Z,4.59
2023-01-21T04:26:54.409Z,4.70
2023-01-21T04:29:21.550Z,4.63
2023-01-21T04:31:48.653Z,4.91
2023-01-21T04:34:16.813Z,4.91
2023-01-21T04:36:44.244Z,4.91
2023-01-21T04:39:11.739Z,5.00
2023-01-21T04:41:38.749Z,4.64
2023-01-21T04:44:05.802Z,4.83
2023-01-21T04:46:32.903Z,5.01
2023-01-21T04:48:59.843Z,5.08
2023-01-21T04:51:26.691Z,4.78
2023-01-21T04:53:53.559Z,5.04
2023-01-21T04:56:20.377Z,5.28
2023-01-21T04:58:47.300Z,5.43
2023-01-21T05:01:14.251Z,5.39
2023-01-21T05:03:41.156Z,4.81
2023-01-21T05:06:08.110Z,5.10
2023-01-21T05:08:34.975Z,5.35
2023-01-21T05:11:01.895Z,5.20
2023-01-21T05:13:28.878Z,5.20
2023-01-21T05:15:56.361Z,5.37
2023-01-21T05:18:23.582Z,5.29
2023-01-21T05:20:50.467Z,5.37
2023-01-21T05:23:17.325Z,5.56
2023-01-21T05:25:44.182Z,4.70
2023-01-21T05:28:11.128Z,4.73
2023-01-21T05:30:40.420Z,4.93
2023-01-21T05:33:08.081Z,5.34
2023-01-21T05:35:35.786Z,5.74
2023-01-21T05:38:02.681Z,5.86
2023-01-21T05:40:29.607Z,5.87
2023-01-21T05:42:56.539Z,6.31
2023-01-21T05:45:23.660Z,6.76
2023-01-21T05:47:50.594Z,7.10
2023-01-21T05:50:17.767Z,7.23
2023-01-21T05:52:44.718Z,8.48
2023-01-21T05:55:11.552Z,9.40
2023-01-21T05:57:38.392Z,10.08
2023-01-21T06:00:05.886Z,10.90
2023-01-21T06:02:32.911Z,11.45
2023-01-21T06:04:59.805Z,12.49
2023-01-21T06:07:26.748Z,14.25
2023-01-21T06:09:53.841Z,13.28
2023-01-21T06:12:20.733Z,9.67
2023-01-21T06:14:47.558Z,8.87
2023-01-21T06:17:14.455Z,8.25
2023-01-21T06:19:41.348Z,8.28
2023-01-21T06:22:14.584Z,8.59
2023-01-21T06:24:41.614Z,8.79
2023-01-21T06:27:08.508Z,9.03
2023-01-21T06:29:35.353Z,10.29
2023-01-21T06:32:02.267Z,11.23
2023-01-21T06:34:29.203Z,12.41
2023-01-21T06:36:56.074Z,12.97
2023-01-21T06:39:22.940Z,14.73
2023-01-21T06:41:49.864Z,16.55
2023-01-21T06:44:16.759Z,17.72
2023-01-21T06:46:52.069Z,17.69
2023-01-21T06:49:26.445Z,17.52
2023-01-21T06:51:53.269Z,17.33
2023-01-21T06:54:22.811Z,16.89
2023-01-21T06:56:49.637Z,16.18
2023-01-21T06:59:16.620Z,14.74
2023-01-21T07:01:43.528Z,14.55
2023-01-21T07:04:10.472Z,14.39
2023-01-21T07:06:38.020Z,14.19
2023-01-21T07:09:06.221Z,14.33
2023-01-21T07:11:33.883Z,15.00
2023-01-21T07:14:00.868Z,16.26
2023-01-21T07:16:27.745Z,16.05
2023-01-21T07:18:54.604Z,16.28
2023-01-21T07:21:21.520Z,16.13
2023-01-21T07:23:48.360Z,15.35
2023-01-21T07:26:15.285Z,16.65
2023-01-21T07:28:42.154Z,17.70
2023-01-21T07:31:09.655Z,19.90
2023-01-21T07:33:36.639Z,20.92
2023-01-21T07:36:03.900Z,22.46
2023-01-21T07:38:30.760Z,22.50
2023-01-21T07:40:57.865Z,21.10
2023-01-21T07:43:24.864Z,19.32
2023-01-21T07:45:52.042Z,19.41
2023-01-21T07:48:18.937Z,20.83
2023-01-21T07:50:45.869Z,20.61
2023-01-21T07:53:12.935Z,19.47
2023-01-21T07:55:40.206Z,18.38
2023-01-21T07:58:07.278Z,17.55
2023-01-21T08:00:34.130Z,18.39
2023-01-21T08:03:01.029Z,19.85
2023-01-21T08:05:28.063Z,20.61
2023-01-21T08:07:58.382Z,20.08
2023-01-21T08:10:25.996Z,18.48
2023-01-21T08:12:52.856Z,17.11
2023-01-21T08:15:19.917Z,17.34
2023-01-21T08:17:47.634Z,17.98
2023-01-21T08:20:15.466Z,19.97
2023-01-21T08:22:42.396Z,19.76
2023-01-21T08:25:09.831Z,20.07
2023-01-21T08:27:36.698Z,18.35
2023-01-21T08:30:03.978Z,17.53
2023-01-21T08:32:31.796Z,17.51
2023-01-21T08:34:58.735Z,18.10
2023-01-21T08:37:25.724Z,16.77
2023-01-21T08:39:52.611Z,18.40
2023-01-21T08:42:19.605Z,17.89
2023-01-21T08:44:46.971Z,17.72
2023-01-21T08:47:13.839Z,16.81
2023-01-21T08:49:40.721Z,15.80
2023-01-21T08:52:07.791Z,14.53
2023-01-21T08:54:34.723Z,14.86
2023-01-21T08:57:01.616Z,14.71
2023-01-21T08:59:30.187Z,15.48
2023-01-21T09:01:57.222Z,15.04
2023-01-21T09:04:24.208Z,15.02
2023-01-21T09:06:51.168Z,15.67
2023-01-21T09:09:18.322Z,15.71
2023-01-21T09:11:45.453Z,14.78
2023-01-21T09:14:12.342Z,14.78
2023-01-21T09:16:39.315Z,15.60
2023-01-21T09:19:06.412Z,16.36
2023-01-21T09:21:37.962Z,16.48
2023-01-21T09:24:05.316Z,17.46
2023-01-21T09:26:32.177Z,17.78
2023-01-21T09:29:01.188Z,16.33
2023-01-21T09:31:30.068Z,14.95
2023-01-21T09:33:59.526Z,14.24
2023-01-21T09:36:30.418Z,14.91
2023-01-21T09:38:58.396Z,15.32
2023-01-21T09:41:31.199Z,14.76
2023-01-21T09:44:16.436Z,14.07
2023-01-21T09:46:56.165Z,13.53
2023-01-21T09:49:30.922Z,13.31
2023-01-21T09:52:30.924Z,12.70
2023-01-21T09:54:58.843Z,12.45
2023-01-21T09:57:34.899Z,13.06
2023-01-21T10:00:19.980Z,15.10
2023-01-21T10:03:08.577Z,15.08
2023-01-21T10:05:44.936Z,14.82
2023-01-21T10:08:30.106Z,13.36
2023-01-21T10:11:22.170Z,12.97
2023-01-21T10:13:54.916Z,13.11
2023-01-21T10:16:54.690Z,14.11
2023-01-21T10:19:33.584Z,14.99
2023-01-21T10:22:06.382Z,15.82
2023-01-21T10:24:42.433Z,16.48
2023-01-21T10:27:19.557Z,16.86
2023-01-21T10:29:54.786Z,17.01
2023-01-21T10:32:25.946Z,16.06
2023-01-21T10:34:55.262Z,16.60
2023-01-21T10:38:00.572Z,17.01
2023-01-21T10:40:43.595Z,16.41
2023-01-21T10:43:28.741Z,17.05
2023-01-21T10:46:18.636Z,16.48
2023-01-21T10:48:54.423Z,16.55
2023-01-21T10:51:32.079Z,16.89
2023-01-21T10:54:37.969Z,15.89
2023-01-21T10:57:20.716Z,15.87
2023-01-21T10:59:48.633Z,15.92
2023-01-21T11:02:30.116Z,14.89
2023-01-21T11:05:02.217Z,14.54
2023-01-21T11:07:35.469Z,13.66
2023-01-21T11:10:05.182Z,13.25
2023-01-21T11:12:32.996Z,12.62
2023-01-21T11:15:07.782Z,13.08
2023-01-21T11:17:39.134Z,13.76
2023-01-21T11:20:33.441Z,13.18
2023-01-21T11:23:04.309Z,13.48
2023-01-21T11:25:41.700Z,13.25
2023-01-21T11:28:26.684Z,13.44
2023-01-21T11:31:15.485Z,13.93
2023-01-21T11:33:43.769Z,14.13
2023-01-21T11:36:14.479Z,14.83
2023-01-21T11:38:42.366Z,14.45
2023-01-21T11:41:12.294Z,14.00
2023-01-21T11:44:08.118Z,14.11
2023-01-21T11:46:38.789Z,14.58
2023-01-21T11:49:08.607Z,14.46
2023-01-21T11:51:37.479Z,14.70
2023-01-21T11:54:24.759Z,15.10
2023-01-21T11:56:56.413Z,14.80
2023-01-21T11:59:30.606Z,14.37
2023-01-21T12:02:10.649Z,14.03
2023-01-21T12:04:42.717Z,14.08
2023-01-21T12:07:19.797Z,14.72
2023-01-21T12:09:56.009Z,14.79
2023-01-21T12:13:00.982Z,14.16
2023-01-21T12:15:46.373Z,13.66
2023-01-21T12:18:51.568Z,13.64
2023-01-21T12:21:52.164Z,13.68
2023-01-21T12:24:18.999Z,13.53
2023-01-21T12:27:00.159Z,13.61
2023-01-21T12:30:00.452Z,13.71
2023-01-21T12:33:03.600Z,14.10
2023-01-21T12:35:39.684Z,13.94
2023-01-21T12:38:10.725Z,13.62
2023-01-21T12:40:41.056Z,13.63
2023-01-21T12:43:30.815Z,13.66
2023-01-21T12:46:23.853Z,13.68
2023-01-21T12:48:53.783Z,13.49
2023-01-21T12:51:28.446Z,13.38
2023-01-21T12:54:22.238Z,13.38
2023-01-21T12:57:19.495Z,13.42
2023-01-21T12:59:56.619Z,13.15
2023-01-21T13:02:39.087Z,13.16
2023-01-21T13:05:23.402Z,13.58
2023-01-21T13:08:16.157Z,13.23
2023-01-21T13:10:50.244Z,13.00
2023-01-21T13:13:22.577Z,12.80
2023-01-21T13:15:56.890Z,12.72
2023-01-21T13:18:32.660Z,12.72
2023-01-21T13:21:12.184Z,13.08
2023-01-21T13:23:54.461Z,13.08
2023-01-21T13:26:39.136Z,13.11
2023-01-21T13:29:19.382Z,13.07
2023-01-21T13:31:55.126Z,13.02
2023-01-21T13:35:06.756Z,13.19
2023-01-21T13:37:37.939Z,13.40
2023-01-21T13:40:32.369Z,13.65
2023-01-21T13:43:32.867Z,13.73
2023-01-21T13:46:07.696Z,13.50
2023-01-21T13:48:51.271Z,13.52
2023-01-21T13:51:36.917Z,13.17
2023-01-21T13:54:24.726Z,13.01
2023-01-21T13:57:19.368Z,13.54
2023-01-21T13:59:53.674Z,13.00
2023-01-21T14:02:48.833Z,12.15
2023-01-21T14:05:24.570Z,12.33
2023-01-21T14:07:59.947Z,12.48
2023-01-21T14:10:48.126Z,12.28
2023-01-21T14:14:01.990Z,12.36
2023-01-21T14:17:09.229Z,12.66
2023-01-21T14:20:13.523Z,12.83
2023-01-21T14:23:20.343Z,13.05
2023-01-21T14:26:28.734Z,12.94
2023-01-21T14:29:13.858Z,13.09
2023-01-21T14:31:44.509Z,13.08
2023-01-21T14:34:24.505Z,12.94
2023-01-21T14:37:15.775Z,12.80
2023-01-21T14:39:54.737Z,12.82
2023-01-21T14:42:41.192Z,12.89
2023-01-21T14:45:08.561Z,13.32
2023-01-21T14:47:35.342Z,13.49
2023-01-21T14:50:02.250Z,13.27
2023-01-21T14:52:36.629Z,13.24
2023-01-21T14:55:24.317Z,12.94
2023-01-21T14:57:52.976Z,12.84
2023-01-21T15:00:29.956Z,12.78
2023-01-21T15:03:15.375Z,12.61
2023-01-21T15:05:48.660Z,12.98
2023-01-21T15:08:32.880Z,13.37
2023-01-21T15:11:04.354Z,13.23
2023-01-21T15:13:38.078Z,13.16
2023-01-21T15:16:23.530Z,12.64
2023-01-21T15:19:08.708Z,12.32
2023-01-21T15:21:42.340Z,11.50
2023-01-21T15:24:21.458Z,11.53
2023-01-21T15:27:14.469Z,11.59
2023-01-21T15:29:44.053Z,11.27
2023-01-21T15:32:30.749Z,11.23
2023-01-21T15:35:29.882Z,11.12
2023-01-21T15:38:04.297Z,11.10
2023-01-21T15:40:41.158Z,11.16
2023-01-21T15:43:20.898Z,11.14
2023-01-21T15:46:16.460Z,11.02
2023-01-21T15:48:57.766Z,10.97
2023-01-21T15:51:39.879Z,10.93
2023-01-21T15:54:28.063Z,10.99
2023-01-21T15:57:25.681Z,10.95
2023-01-21T15:59:55.779Z,10.99
2023-01-21T16:02:31.856Z,10.93
2023-01-21T16:05:04.618Z,10.94
2023-01-21T16:07:54.351Z,10.94
2023-01-21T16:10:31.744Z,10.91
2023-01-21T16:13:17.460Z,10.91
2023-01-21T16:16:02.939Z,10.94
2023-01-21T16:18:44.868Z,11.04
2023-01-21T16:21:12.458Z,10.98
2023-01-21T16:23:43.196Z,11.02
2023-01-21T16:26:10.209Z,10.95
2023-01-21T16:28:46.731Z,11.00
2023-01-21T16:31:13.776Z,10.96
2023-01-21T16:33:42.674Z,10.89
2023-01-21T16:36:14.255Z,10.93
2023-01-21T16:38:43.257Z,10.92
2023-01-21T16:41:13.826Z,10.93
2023-01-21T16:43:45.742Z,11.01
2023-01-21T16:46:15.458Z,10.94
2023-01-21T16:48:42.919Z,10.91
2023-01-21T16:51:23.745Z,11.00
2023-01-21T16:53:54.091Z,11.15
2023-01-21T16:56:30.853Z,11.10
2023-01-21T16:58:57.813Z,11.07
2023-01-21T17:01:31.269Z,11.32
2023-01-21T17:04:01.330Z,11.06
2023-01-21T17:06:31.276Z,11.12
2023-01-21T17:09:02.249Z,11.06
2023-01-21T17:11:31.448Z,11.11
2023-01-21T17:14:01.450Z,11.13
2023-01-21T17:16:37.082Z,10.97
2023-01-21T17:19:23.206Z,10.85
2023-01-21T17:21:55.606Z,11.07
2023-01-21T17:24:34.546Z,11.67
2023-01-21T17:27:09.859Z,11.96
2023-01-21T17:29:36.571Z,11.27
2023-01-21T17:32:25.551Z,11.23
2023-01-21T17:35:14.410Z,10.98
2023-01-21T17:37:45.945Z,11.09
2023-01-21T17:40:25.520Z,11.52
2023-01-21T17:42:53.066Z,11.50
2023-01-21T17:45:28.306Z,11.20
2023-01-21T17:48:12.430Z,11.36
2023-01-21T17:50:46.720Z,11.28
2023-01-21T17:53:25.292Z,11.36
2023-01-21T17:56:04.639Z,11.33
2023-01-21T17:58:31.560Z,11.35
2023-01-21T18:01:01.774Z,11.24
2023-01-21T18:03:28.936Z,11.30
2023-01-21T18:05:56.345Z,10.74
2023-01-21T18:08:23.335Z,10.62
2023-01-21T18:10:50.846Z,10.53
2023-01-21T18:13:19.435Z,10.53
2023-01-21T18:15:49.439Z,10.63
2023-01-21T18:18:19.510Z,10.71
2023-01-21T18:20:47.131Z,11.00
2023-01-21T18:23:15.296Z,10.93
2023-01-21T18:25:43.029Z,11.20
2023-01-21T18:28:18.280Z,10.88
2023-01-21T18:30:45.281Z,11.22
2023-01-21T18:33:13.306Z,11.21
2023-01-21T18:35:44.511Z,11.33
2023-01-21T18:38:13.086Z,11.48
2023-01-21T18:40:40.536Z,11.54
2023-01-21T18:43:07.545Z,11.58
2023-01-21T18:45:34.700Z,11.52
2023-01-21T18:48:01.679Z,11.20
2023-01-21T18:50:30.415Z,12.32
2023-01-21T18:52:57.390Z,12.06
2023-01-21T18:55:28.253Z,12.07
2023-01-21T18:57:56.616Z,12.01
2023-01-21T19:00:29.383Z,11.85
2023-01-21T19:02:58.851Z,11.72
2023-01-21T19:05:34.113Z,11.73
2023-01-21T19:08:01.320Z,11.98
2023-01-21T19:10:28.425Z,11.49
2023-01-21T19:12:55.289Z,12.04
2023-01-21T19:15:25.035Z,12.06
2023-01-21T19:17:52.170Z,12.21
2023-01-21T19:20:20.680Z,12.38
2023-01-21T19:22:49.168Z,12.01
2023-01-21T19:25:18.650Z,11.99
2023-01-21T19:27:50.637Z,12.05
2023-01-21T19:30:29.021Z,12.08
2023-01-21T19:32:57.962Z,11.99
2023-01-21T19:35:38.327Z,12.38
2023-01-21T19:38:11.821Z,12.11
2023-01-21T19:40:39.034Z,11.68
2023-01-21T19:43:05.990Z,11.81
2023-01-21T19:45:33.218Z,12.01
2023-01-21T19:48:00.116Z,12.02
2023-01-21T19:50:28.093Z,11.99
2023-01-21T19:52:55.598Z,11.46
2023-01-21T19:55:25.963Z,11.54
2023-01-21T19:58:00.065Z,11.96
2023-01-21T20:00:34.128Z,12.33
2023-01-21T20:03:01.510Z,12.33
2023-01-21T20:05:33.878Z,12.14
2023-01-21T20:08:01.894Z,11.48
2023-01-21T20:10:31.026Z,11.57
2023-01-21T20:12:58.386Z,11.55
2023-01-21T20:15:31.639Z,11.56
2023-01-21T20:18:01.039Z,11.59
2023-01-21T20:20:30.442Z,11.83
2023-01-21T20:22:57.952Z,12.12
2023-01-21T20:25:36.407Z,11.95
2023-01-21T20:28:14.420Z,12.16
2023-01-21T20:30:41.292Z,11.99
2023-01-21T20:33:13.992Z,11.59
2023-01-21T20:35:41.011Z,11.35
2023-01-21T20:38:13.178Z,11.07
2023-01-21T20:40:40.617Z,11.14
2023-01-21T20:43:07.758Z,11.02
2023-01-21T20:45:41.406Z,11.14
2023-01-21T20:48:18.953Z,11.32
2023-01-21T20:50:46.459Z,11.60
2023-01-21T20:53:13.707Z,11.84
2023-01-21T20:55:41.405Z,11.77
2023-01-21T20:58:12.087Z,12.03
2023-01-21T21:00:39.073Z,11.71
2023-01-21T21:03:06.107Z,11.43
2023-01-21T21:05:33.157Z,11.95
2023-01-21T21:08:00.133Z,12.14
2023-01-21T21:10:29.642Z,12.56
2023-01-21T21:12:58.765Z,12.36
2023-01-21T21:15:30.448Z,12.25
2023-01-21T21:17:58.169Z,12.74
2023-01-21T21:20:27.608Z,13.21
2023-01-21T21:22:54.770Z,13.02
2023-01-21T21:25:28.141Z,12.79
2023-01-21T21:27:55.736Z,13.09
2023-01-21T21:30:28.100Z,13.33
2023-01-21T21:32:59.886Z,13.25
2023-01-21T21:35:31.002Z,12.91
2023-01-21T21:38:06.185Z,12.51
2023-01-21T21:40:34.801Z,12.86
2023-01-21T21:43:20.738Z,12.50
2023-01-21T21:46:06.450Z,12.83
2023-01-21T21:48:39.824Z,12.11
2023-01-21T21:51:15.105Z,12.30
2023-01-21T21:53:41.894Z,12.23
2023-01-21T21:56:13.173Z,12.19
2023-01-21T21:58:40.476Z,12.00
2023-01-21T22:01:13.860Z,12.27
2023-01-21T22:03:41.135Z,11.87
2023-01-21T22:06:08.683Z,11.77
2023-01-21T22:08:37.615Z,11.98
2023-01-21T22:11:07.364Z,11.70
2023-01-21T22:13:37.650Z,11.32
2023-01-21T22:16:05.049Z,11.19
2023-01-21T22:18:32.512Z,11.48
2023-01-21T22:21:04.671Z,11.71
2023-01-21T22:23:33.316Z,11.62
2023-01-21T22:26:07.593Z,11.95
2023-01-21T22:28:35.809Z,12.52
2023-01-21T22:31:12.034Z,12.44
2023-01-21T22:33:39.368Z,12.35
2023-01-21T22:36:09.589Z,12.27
2023-01-21T22:38:39.588Z,12.66
2023-01-21T22:41:08.231Z,12.69
2023-01-21T22:43:35.231Z,12.73
2023-01-21T22:46:02.843Z,12.93
2023-01-21T22:48:31.594Z,13.12
2023-01-21T22:51:00.413Z,13.11
2023-01-21T22:53:28.363Z,12.88
2023-01-21T22:55:59.368Z,13.06
2023-01-21T22:58:27.704Z,12.67
2023-01-21T23:00:55.481Z,12.40
2023-01-21T23:03:23.640Z,12.70
2023-01-21T23:05:50.685Z,13.01
2023-01-21T23:08:18.932Z,12.77
2023-01-21T23:10:46.992Z,12.62
2023-01-21T23:13:15.267Z,12.26
2023-01-21T23:15:44.217Z,11.99
2023-01-21T23:18:11.228Z,12.01
2023-01-21T23:20:38.211Z,12.02
2023-01-21T23:23:05.285Z,12.20
2023-01-21T23:25:32.164Z,12.17
2023-01-21T23:27:59.015Z,12.08
2023-01-21T23:30:25.834Z,12.18
2023-01-21T23:32:52.818Z,11.65
2023-01-21T23:35:19.743Z,11.51
2023-01-21T23:37:46.701Z,11.64
2023-01-21T23:40:13.872Z,11.41
2023-01-21T23:42:41.024Z,11.54
2023-01-21T23:45:08.257Z,11.40
2023-01-21T23:47:35.207Z,11.32
2023-01-21T23:50:02.195Z,11.39
2023-01-21T23:52:29.009Z,11.35
2023-01-21T23:54:55.899Z,11.28
2023-01-21T23:57:22.752Z,11.35
2023-01-21T23:59:49.629Z,11.57
